Atlantic, IA

4:57 PM CDT on July 12, 2014 (GMT -0500)
Audubon County (KADU) Elev 1286 ft | 41.70 °N, 94.92 °W | Change Station

Current weather conditions updated 22 minutes ago

Clear
Clear
79 °F
Feels Like 79 °F
N
6
Wind Variable Wind from North

Tomorrow is forecast to be nearly the same temperature as today. Periods of rain overnight tomorrow night.

Today
High -- | Low -- °F
--% Chance of Precip.
Yesterday
High -- | Low -- °F
Precip. -- in
5:57 AM 8:53 PM
Full, 100% visible
Pressure 30.00 in
Visibility 10.0 miles
Clouds Clear
Dew Point 73 °F
Humidity 83%
Rainfall 0.00 in
Snow Depth Not available.
UV 6 out of 12
Pollen 2.40 out of 12
Air Quality Not available.
Flu Activity Sporadic
METAR KADU 122135Z AUTO 01005KT 10SM CLR 26/23 A3000 RMK AO2

More Conditions Fewer Conditions

Pressure 30.00 in
Visibility 10.0 miles
Clouds Clear
Dew Point 73 °F
Humidity 83%
Rainfall 0.00 in
Snow Depth Not available.
UV 6 out of 12
Pollen 2.40 out of 12
Air Quality Not available.
Flu Activity Sporadic
METAR KADU 122135Z AUTO 01005KT 10SM CLR 26/23 A3000 RMK AO2

More Conditions Fewer Conditions

10-Day Weather Forecast

Almanac

Astronomy

Jul. 12, 2014 Rise Set
Actual Time 5:57 AM CDT 8:53 PM CDT
Civil Twilight 5:24 AM CDT 9:26 PM CDT
Nautical Twilight 4:42 AM CDT 10:08 PM CDT
Astronomical Twilight 3:53 AM CDT 10:57 PM CDT
Moon 8:55 PM CDT 6:18 AM CDT
Length of Visible Light 16h 02m
Length of Day
14h 56m
Tomorrow will be 1m 19s shorter.
Full, 100% of the Moon is Illuminated
Today
Full
Jul 18
Last Quarter
Jul 26
New
Aug 3
First Quarter
Aug 10
Full

Today's Extremes

State Highs State Lows

Community

WunderPhotos

Upload Photos

1,732,976 photos uploaded!

Nearby

Snow Depth

Station Depth Elevation
No new snow has been reported.

Earthquake Activity

City Distance Mag. Time & Date
No recent earthquake activity has been reported nearby.
Minimum magnitude displayed is 2.5.

Coastal Water Temperatures

Place Temperature
No Stations Reporting

Nearby Weather Stations

Station Location Temp. Heat Index Dew Point Humidity Wind Precip. Elev Updated Type
16th St and Olive, Atlantic, IA 81.2 °F 86 °F 73 °F 77% North  at  0.0 mph 0.00 in / hr 1270 ft 4:57 PM CDT Rapid Fire
NFS-64919 Yankton Rd, Villisca, IA 87.3 °F 98 °F 76 °F 69% WSW  at  7.0 mph 0.00 in / hr 1152 ft 4:44 PM CDT Normal
DA Farm, Oakland, IA 81.8 °F 88 °F 74 °F 78% North  at  7.0 mph 0.00 in / hr 1096 ft 4:55 PM CDT Normal
Herbers Seed, Audubon, IA 74.4 °F 73 °F 71 °F 90% NNE  at  11.0 mph - / hr 1385 ft 4:42 PM CDT Normal
Farmhouse, Emerson, IA 81.7 °F 88 °F 75 °F 81% ESE  at  12.0 mph 0.00 in / hr 1273 ft 4:57 PM CDT Rapid Fire
Ernie's in SouthWest, Harlan, IA 77.2 °F 79 °F 72 °F 85% North  at  3.1 mph 0.00 in / hr 1260 ft 4:57 PM CDT Rapid Fire
Tiny1974 KB0MGT, Harlan, IA 74.5 °F 73 °F 72 °F 91% SSW  at  3.7 mph - / hr 1319 ft 4:47 PM CDT Normal

Show More Stations Show Fewer Stations